Time;durP1;ratioP1;P1;durP2;ratioP2;P2;SDS_P1;SDS_P2;PMS_P1;PMS_P2;Temp;Humidity;BMP_temperature;BMP_pressure;BME280_temperature;BME280_humidity;BME280_pressure;Samples;Min_cycle;Max_cycle;Signal;HPM_P1;HPM_P2
2024/03/14 00:01:06;;;;;;;4.57;3.95;;;14.70;66.60;16.20;101227.00;;;;5003106;28;20201;-78
2024/03/14 00:03:33;;;;;;;4.50;3.13;;;14.70;66.60;16.30;101220.00;;;;5008456;28;20224;-77
2024/03/14 00:06:01;;;;;;;3.97;3.60;;;14.70;66.60;16.30;101220.00;;;;5022384;28;20187;-77
2024/03/14 00:08:29;;;;;;;4.03;3.47;;;14.70;66.60;16.20;101220.00;;;;5003071;28;20265;-77
2024/03/14 00:10:56;;;;;;;4.47;3.20;;;14.60;66.60;16.20;101225.00;;;;5009516;28;20204;-77
2024/03/14 00:13:25;;;;;;;4.50;3.60;;;14.60;66.60;16.20;101218.00;;;;5000290;28;20311;-77
2024/03/14 00:15:52;;;;;;;5.88;3.88;;;14.60;66.70;16.20;101225.00;;;;5017857;28;20673;-77
2024/03/14 00:18:19;;;;;;;4.65;3.88;;;14.60;67.40;16.10;101226.00;;;;5000878;28;20228;-77
2024/03/14 00:20:47;;;;;;;5.10;4.22;;;14.50;66.70;16.10;101221.00;;;;5005507;28;20195;-77
2024/03/14 00:23:14;;;;;;;5.68;3.75;;;14.50;66.80;16.10;101216.00;;;;5003379;28;20192;-77
2024/03/14 00:25:41;;;;;;;4.47;3.50;;;14.50;66.80;16.10;101217.00;;;;5030810;28;20685;-77
2024/03/14 00:28:09;;;;;;;5.53;3.72;;;14.50;66.80;16.10;101210.00;;;;5013851;28;20278;-76
2024/03/14 00:30:37;;;;;;;4.60;3.45;;;14.50;66.90;16.10;101218.00;;;;5007764;28;20199;-77
2024/03/14 00:33:05;;;;;;;5.18;3.65;;;14.40;66.90;16.10;101209.00;;;;5008715;28;20231;-77
2024/03/14 00:35:32;;;;;;;3.95;3.55;;;14.40;67.00;16.10;101212.00;;;;5006107;28;20207;-77
2024/03/14 00:37:59;;;;;;;4.57;3.70;;;14.40;67.00;16.00;101207.00;;;;4997543;28;20224;-77
2024/03/14 00:40:28;;;;;;;4.80;4.13;;;14.40;67.00;16.00;101211.00;;;;5021000;28;20196;-77
2024/03/14 00:42:56;;;;;;;3.35;3.05;;;14.40;67.00;16.00;101204.00;;;;5037916;28;20273;-77
2024/03/14 00:45:23;;;;;;;4.20;3.22;;;14.40;67.20;16.00;101204.00;;;;5023488;28;20192;-76
2024/03/14 00:47:51;;;;;;;4.68;3.55;;;14.40;67.10;16.00;101202.00;;;;4998918;28;20200;-77
2024/03/14 00:50:19;;;;;;;4.28;3.47;;;14.30;67.10;16.00;101207.00;;;;4998609;28;20204;-76
2024/03/14 00:52:46;;;;;;;4.13;3.72;;;14.30;67.80;16.00;101207.00;;;;5014022;28;20204;-76
2024/03/14 00:55:14;;;;;;;3.92;3.33;;;14.30;67.10;16.00;101205.00;;;;5016427;28;20199;-77
2024/03/14 00:57:41;;;;;;;4.30;3.90;;;14.30;67.10;15.90;101204.00;;;;5026423;28;20301;-77
2024/03/14 01:00:12;;;;;;;4.60;3.20;;;14.30;67.10;15.90;101201.00;;;;5037585;28;20218;-76
2024/03/14 01:02:41;;;;;;;3.90;3.33;;;14.30;67.20;15.90;101209.00;;;;5051682;28;20198;-76
2024/03/14 01:05:08;;;;;;;3.35;3.03;;;14.30;67.20;15.90;101193.00;;;;4997902;28;20224;-76
2024/03/14 01:07:36;;;;;;;4.78;3.30;;;14.30;67.20;15.90;101200.00;;;;5017815;28;20876;-77
2024/03/14 01:10:04;;;;;;;3.50;3.20;;;14.30;67.20;15.90;101201.00;;;;4997740;28;20287;-77
2024/03/14 01:12:32;;;;;;;3.40;3.10;;;14.30;67.30;15.80;101196.00;;;;4998108;28;20262;-77
2024/03/14 01:15:00;;;;;;;3.30;2.97;;;14.30;67.30;15.80;101197.00;;;;4997469;28;20291;-76
2024/03/14 01:17:27;;;;;;;4.18;3.45;;;14.20;67.20;15.80;101195.00;;;;5013337;28;20216;-77
2024/03/14 01:19:55;;;;;;;3.47;2.67;;;14.30;67.20;15.80;101196.00;;;;5003619;28;20192;-77
2024/03/14 01:22:22;;;;;;;3.47;2.97;;;14.20;67.20;15.80;101197.00;;;;4990471;28;20203;-76
2024/03/14 01:24:49;;;;;;;3.90;3.10;;;14.20;67.10;15.80;101196.00;;;;4985349;28;20201;-77
2024/03/14 01:27:18;;;;;;;3.58;3.10;;;14.20;67.10;15.70;101193.00;;;;5006868;28;20299;-75
2024/03/14 01:29:45;;;;;;;3.67;3.00;;;14.20;67.10;15.70;101189.00;;;;4993627;28;20250;-75
2024/03/14 01:32:13;;;;;;;4.57;3.00;;;14.20;67.10;15.70;101186.00;;;;4990960;28;20212;-75
2024/03/14 01:34:40;;;;;;;3.50;3.00;;;14.10;67.70;15.70;101195.00;;;;4981676;28;20207;-75
2024/03/14 01:37:10;;;;;;;2.75;2.53;;;14.10;67.10;15.70;101191.00;;;;5002601;28;20567;-77
2024/03/14 01:39:37;;;;;;;3.80;2.90;;;14.10;67.10;15.60;101194.00;;;;4991590;28;20216;-76
2024/03/14 01:42:05;;;;;;;3.78;3.30;;;14.10;67.10;15.60;101188.00;;;;4987421;28;20226;-77
2024/03/14 01:44:53;;;;;;;3.03;2.72;;;14.10;67.10;15.50;101179.00;;;;4981354;28;20214;-76
2024/03/14 01:47:21;;;;;;;3.05;2.70;;;14.00;67.10;15.60;101180.00;;;;4987313;28;20207;-76
2024/03/14 01:49:48;;;;;;;3.35;2.70;;;14.00;67.00;15.60;101176.00;;;;5003647;28;20308;-77
2024/03/14 01:52:16;;;;;;;3.58;2.92;;;14.00;67.00;15.60;101183.00;;;;5001684;28;20197;-76
2024/03/14 01:54:43;;;;;;;3.70;2.90;;;14.00;67.10;15.50;101179.00;;;;4987121;28;20821;-77
2024/03/14 01:57:10;;;;;;;3.60;3.00;;;14.00;67.10;15.50;101170.00;;;;4984952;28;20219;-77
2024/03/14 01:59:37;;;;;;;4.50;3.03;;;13.90;67.10;15.50;101167.00;;;;5011566;28;20310;-77
2024/03/14 02:02:06;;;;;;;3.40;2.72;;;13.90;67.10;15.50;101172.00;;;;4999650;28;20198;-77
2024/03/14 02:04:35;;;;;;;3.35;3.05;;;13.90;67.10;15.50;101164.00;;;;5009182;28;20314;-77
2024/03/14 02:07:02;;;;;;;3.85;3.28;;;13.90;67.10;15.50;101166.00;;;;5002672;28;20775;-75
2024/03/14 02:09:30;;;;;;;3.17;2.88;;;13.90;67.20;15.50;101166.00;;;;5017819;28;20204;-77
2024/03/14 02:12:00;;;;;;;3.60;2.95;;;13.90;67.20;15.50;101164.00;;;;5008245;28;20582;-76
2024/03/14 02:14:27;;;;;;;3.92;3.03;;;13.90;67.20;15.50;101160.00;;;;4985312;28;20221;-77
2024/03/14 02:16:55;;;;;;;4.20;2.92;;;13.90;67.80;15.50;101160.00;;;;5012310;28;20288;-75
2024/03/14 02:19:22;;;;;;;3.95;2.80;;;13.90;67.20;15.40;101154.00;;;;5016119;28;20306;-76
2024/03/14 02:21:49;;;;;;;3.35;3.00;;;13.80;67.10;15.40;101149.00;;;;5017094;28;20197;-76
2024/03/14 02:24:17;;;;;;;3.45;3.15;;;13.80;67.10;15.40;101144.00;;;;5013128;28;20554;-77
2024/03/14 02:26:45;;;;;;;2.95;2.65;;;13.80;67.10;15.40;101137.00;;;;5020587;28;20196;-77
2024/03/14 02:29:12;;;;;;;5.53;3.03;;;13.80;67.10;15.40;101138.00;;;;5019824;28;20504;-76
2024/03/14 02:31:39;;;;;;;4.32;3.28;;;13.80;67.10;15.40;101138.00;;;;5015625;28;20192;-76
2024/03/14 02:34:06;;;;;;;3.67;3.17;;;13.70;67.00;15.30;101137.00;;;;5011639;28;20604;-76
2024/03/14 02:36:35;;;;;;;3.13;2.83;;;13.70;67.00;15.30;101126.00;;;;5017646;28;20197;-77
2024/03/14 02:39:05;;;;;;;6.13;3.33;;;13.70;67.00;15.30;101128.00;;;;5031526;28;20227;-77
2024/03/14 02:41:32;;;;;;;2.95;2.65;;;13.70;67.00;15.30;101135.00;;;;5016472;28;20581;-76
2024/03/14 02:43:59;;;;;;;4.80;3.40;;;13.70;67.80;15.30;101134.00;;;;5011429;28;20205;-77
2024/03/14 02:46:26;;;;;;;3.72;3.05;;;13.60;67.00;15.20;101127.00;;;;5047712;28;20665;-77
2024/03/14 02:48:54;;;;;;;3.40;3.00;;;13.60;67.00;15.20;101127.00;;;;5003627;28;20204;-76
2024/03/14 02:51:22;;;;;;;3.47;3.08;;;13.60;67.00;15.20;101127.00;;;;5005170;28;20211;-76
2024/03/14 02:53:49;;;;;;;3.85;3.45;;;13.60;67.00;15.20;101125.00;;;;5006759;28;20207;-77
2024/03/14 02:56:16;;;;;;;5.40;3.30;;;13.50;67.00;15.20;101123.00;;;;5016446;28;20203;-77
2024/03/14 02:58:43;;;;;;;5.30;3.95;;;13.50;67.00;15.10;101122.00;;;;5016191;28;20224;-76
2024/03/14 03:01:11;;;;;;;3.40;3.10;;;13.50;67.00;15.10;101123.00;;;;5008043;28;20223;-77
2024/03/14 03:03:38;;;;;;;3.75;3.45;;;13.50;67.00;15.10;101118.00;;;;4999349;28;20223;-77
2024/03/14 03:06:05;;;;;;;6.20;3.47;;;13.40;67.10;15.10;101118.00;;;;5016018;28;20200;-77
2024/03/14 03:08:33;;;;;;;3.95;3.60;;;13.50;67.20;15.00;101110.00;;;;5000013;28;20208;-76
2024/03/14 03:11:00;;;;;;;4.78;3.35;;;13.40;67.20;15.00;101112.00;;;;5016595;28;20664;-77
2024/03/14 03:13:27;;;;;;;4.75;4.10;;;13.40;67.10;15.00;101106.00;;;;5000896;28;20215;-77
2024/03/14 03:15:54;;;;;;;4.50;4.10;;;13.40;67.10;15.00;101105.00;;;;5036801;28;20274;-77
2024/03/14 03:18:22;;;;;;;5.25;4.30;;;13.40;67.10;15.00;101100.00;;;;5035600;28;20309;-77
2024/03/14 03:20:51;;;;;;;4.40;3.85;;;13.30;67.10;15.00;101096.00;;;;5004616;28;20735;-77
2024/03/14 03:23:18;;;;;;;5.25;3.92;;;13.30;67.10;14.90;101104.00;;;;5005472;28;20200;-76
2024/03/14 03:25:46;;;;;;;4.93;4.07;;;13.30;67.10;14.90;101103.00;;;;5013928;28;20688;-77
2024/03/14 03:28:13;;;;;;;4.40;3.95;;;13.20;67.10;14.90;101093.00;;;;5002467;28;20282;-77
2024/03/14 03:30:40;;;;;;;5.13;3.88;;;13.20;67.10;14.90;101095.00;;;;4999417;28;20219;-77
2024/03/14 03:33:07;;;;;;;4.80;3.95;;;13.20;67.10;14.80;101099.00;;;;5017212;28;20660;-77
2024/03/14 03:35:34;;;;;;;4.60;3.92;;;13.20;67.20;14.80;101099.00;;;;5009749;28;20201;-76
2024/03/14 03:38:00;;;;;;;4.50;3.63;;;13.20;67.20;14.80;101088.00;;;;5001345;28;20740;-76
2024/03/14 03:40:35;;;;;;;5.78;5.10;;;13.10;67.10;14.80;101089.00;;;;5016518;28;20201;-76
2024/03/14 03:43:02;;;;;;;6.47;4.32;;;13.10;67.20;14.70;101087.00;;;;5004882;28;20206;-77
2024/03/14 03:45:30;;;;;;;5.72;5.03;;;13.10;67.20;14.70;101087.00;;;;5005130;28;20192;-77
2024/03/14 03:47:56;;;;;;;5.53;4.50;;;13.10;67.20;14.70;101080.00;;;;5018057;28;20574;-77
2024/03/14 03:50:23;;;;;;;5.10;4.45;;;13.00;67.20;14.70;101079.00;;;;5017235;28;20574;-76
2024/03/14 03:52:50;;;;;;;5.32;4.80;;;13.00;67.90;14.60;101073.00;;;;5002578;28;20257;-77
2024/03/14 03:55:17;;;;;;;5.97;5.28;;;13.00;67.20;14.60;101073.00;;;;5000896;28;20203;-76
2024/03/14 03:57:44;;;;;;;6.53;5.47;;;12.90;67.20;14.60;101063.00;;;;5020045;28;20198;-77
2024/03/14 04:02:53;;;;;;;4.93;4.15;;;12.90;67.30;14.50;101077.00;;;;5014540;28;20220;-77
2024/03/14 04:05:20;;;;;;;5.38;4.68;;;12.90;67.30;14.50;101077.00;;;;4982042;28;20203;-77
2024/03/14 04:07:49;;;;;;;5.45;4.53;;;12.80;67.90;14.50;101072.00;;;;4986975;28;20243;-77
2024/03/14 04:10:15;;;;;;;5.07;4.47;;;12.80;67.20;14.50;101076.00;;;;4990167;28;20665;-77
2024/03/14 04:12:44;;;;;;;5.78;4.90;;;12.80;67.30;14.40;101066.00;;;;4985006;28;20243;-77
2024/03/14 04:15:11;;;;;;;6.13;5.45;;;12.80;67.30;14.40;101079.00;;;;4985428;28;20711;-77
2024/03/14 04:17:37;;;;;;;6.70;4.95;;;12.80;67.40;14.40;101077.00;;;;4986973;28;20721;-77
2024/03/14 04:20:10;;;;;;;5.82;5.18;;;12.70;67.30;14.40;101075.00;;;;5006329;28;20258;-77
2024/03/14 04:22:39;;;;;;;6.63;5.47;;;12.70;67.30;14.30;101079.00;;;;4992978;28;20223;-77
2024/03/14 04:25:10;;;;;;;5.72;5.13;;;12.60;67.20;14.30;101080.00;;;;4982183;28;20208;-76
2024/03/14 04:27:41;;;;;;;6.35;5.53;;;12.60;67.20;14.30;101084.00;;;;4989464;28;20287;-76
2024/03/14 04:30:12;;;;;;;7.30;5.13;;;12.60;67.30;14.20;101089.00;;;;4992005;28;20278;-77
2024/03/14 04:32:40;;;;;;;5.93;5.32;;;12.60;67.30;14.20;101088.00;;;;4986224;28;20208;-76
2024/03/14 04:35:10;;;;;;;6.20;5.50;;;12.50;67.40;14.20;101082.00;;;;5004855;28;20223;-77
2024/03/14 04:37:38;;;;;;;5.75;5.18;;;12.50;67.40;14.10;101076.00;;;;4986242;28;20205;-76
2024/03/14 04:40:11;;;;;;;7.18;5.68;;;12.50;67.40;14.10;101081.00;;;;4985271;28;20770;-76
2024/03/14 04:42:40;;;;;;;7.07;5.53;;;12.40;67.30;14.10;101076.00;;;;4996645;28;20192;-76
2024/03/14 04:45:09;;;;;;;7.32;6.07;;;12.40;67.30;14.10;101077.00;;;;4990619;28;20195;-76
2024/03/14 04:47:37;;;;;;;7.70;5.90;;;12.40;67.40;14.00;101070.00;;;;5017767;28;20282;-76
2024/03/14 04:50:03;;;;;;;8.18;5.97;;;12.40;67.30;14.00;101072.00;;;;4991602;28;20219;-76
2024/03/14 04:52:31;;;;;;;6.32;5.13;;;12.30;67.40;14.00;101074.00;;;;4988307;28;20234;-76
2024/03/14 04:54:58;;;;;;;6.70;5.65;;;12.30;68.10;13.90;101074.00;;;;4982050;28;20200;-76
2024/03/14 04:57:26;;;;;;;7.07;6.07;;;12.30;67.50;13.90;101085.00;;;;4998032;28;20196;-77
2024/03/14 04:59:54;;;;;;;7.45;5.95;;;12.30;67.50;13.90;101074.00;;;;5013963;28;20243;-77
2024/03/14 05:02:21;;;;;;;7.95;5.95;;;12.20;68.10;13.90;101076.00;;;;5021473;28;20653;-77
2024/03/14 05:04:48;;;;;;;7.13;5.88;;;12.20;67.50;13.80;101079.00;;;;4976047;28;20692;-77
2024/03/14 05:07:15;;;;;;;7.38;5.35;;;12.20;67.60;13.80;101076.00;;;;4965750;28;20197;-76
2024/03/14 05:09:43;;;;;;;7.18;5.63;;;12.20;67.60;13.80;101072.00;;;;4978204;28;20196;-77
2024/03/14 05:12:10;;;;;;;6.85;6.07;;;12.10;67.50;13.80;101082.00;;;;4984426;28;20197;-77
2024/03/14 05:14:37;;;;;;;6.45;5.50;;;12.10;68.20;13.80;101080.00;;;;4977122;28;20213;-77
2024/03/14 05:17:05;;;;;;;6.80;5.80;;;12.10;67.60;13.70;101079.00;;;;4964871;28;20205;-77
2024/03/14 05:19:32;;;;;;;7.53;6.18;;;12.10;67.60;13.70;101071.00;;;;4968389;28;20219;-76
2024/03/14 05:22:00;;;;;;;7.72;6.43;;;12.10;67.60;13.70;101071.00;;;;4971621;28;20206;-77
2024/03/14 05:24:27;;;;;;;10.32;6.15;;;12.00;67.60;13.70;101072.00;;;;4964002;28;20188;-76
2024/03/14 05:26:54;;;;;;;8.25;5.97;;;12.00;67.60;13.60;101069.00;;;;4996406;28;20206;-76
2024/03/14 05:29:22;;;;;;;7.40;5.68;;;12.00;67.70;13.60;101058.00;;;;4973450;28;20196;-76
2024/03/14 05:31:49;;;;;;;8.93;6.00;;;11.90;67.70;13.60;101056.00;;;;4961459;28;20200;-76
2024/03/14 05:34:17;;;;;;;7.68;6.22;;;12.00;67.80;13.60;101052.00;;;;4988002;28;20204;-76
2024/03/14 05:36:44;;;;;;;8.55;5.68;;;11.90;68.50;13.50;101057.00;;;;4989261;28;20200;-76
2024/03/14 05:39:14;;;;;;;7.05;5.75;;;11.90;67.80;13.50;101059.00;;;;4964356;28;20605;-76
2024/03/14 05:41:41;;;;;;;8.50;6.35;;;11.90;67.90;13.50;101065.00;;;;4978414;28;20553;-76
2024/03/14 05:44:08;;;;;;;7.75;5.88;;;11.90;67.90;13.50;101061.00;;;;4972804;28;20196;-77
2024/03/14 05:46:36;;;;;;;8.55;6.50;;;11.90;68.00;13.50;101063.00;;;;4969190;28;20211;-76
2024/03/14 05:49:06;;;;;;;7.95;6.25;;;11.80;68.00;13.50;101058.00;;;;4980779;28;20196;-76
2024/03/14 05:51:33;;;;;;;10.15;6.18;;;11.80;68.10;13.50;101059.00;;;;4971317;28;20220;-75
2024/03/14 05:54:00;;;;;;;7.28;5.72;;;11.80;68.10;13.50;101061.00;;;;4976329;28;20192;-77
2024/03/14 05:56:28;;;;;;;9.23;6.45;;;11.80;68.10;13.40;101060.00;;;;4985730;28;20267;-76
2024/03/14 05:58:55;;;;;;;8.05;6.43;;;11.80;68.10;13.40;101061.00;;;;4970274;28;20205;-77
2024/03/14 06:01:22;;;;;;;8.82;6.10;;;11.70;68.10;13.40;101054.00;;;;4958225;28;20646;-76
2024/03/14 06:03:49;;;;;;;10.40;6.07;;;11.80;68.20;13.40;101058.00;;;;4998745;28;20223;-76
2024/03/14 06:06:18;;;;;;;7.43;5.57;;;11.70;68.30;13.40;101050.00;;;;4997271;28;20196;-77
2024/03/14 06:08:45;;;;;;;8.63;5.50;;;11.70;68.10;13.40;101057.00;;;;5010850;28;20244;-75
2024/03/14 06:11:15;;;;;;;6.93;5.55;;;11.70;68.80;13.40;101057.00;;;;5011333;28;20198;-76
2024/03/14 06:13:42;;;;;;;7.32;6.38;;;11.70;68.90;13.40;101058.00;;;;5008169;28;20230;-75
2024/03/14 06:16:09;;;;;;;9.18;6.28;;;11.70;68.20;13.40;101052.00;;;;5002483;28;20212;-76
2024/03/14 06:18:37;;;;;;;6.65;5.10;;;11.70;68.30;13.40;101064.00;;;;4996433;28;20195;-75
2024/03/14 06:21:05;;;;;;;8.82;6.18;;;11.70;68.30;13.30;101065.00;;;;4996769;28;20247;-76
2024/03/14 06:23:32;;;;;;;6.57;5.60;;;11.70;68.50;13.30;101067.00;;;;4997494;28;20254;-77
2024/03/14 06:26:01;;;;;;;7.10;6.38;;;11.70;69.20;13.30;101068.00;;;;4997020;28;20204;-75
2024/03/14 06:28:28;;;;;;;7.50;6.07;;;11.70;68.60;13.40;101066.00;;;;5005220;28;20204;-76
2024/03/14 06:30:55;;;;;;;7.43;5.93;;;11.70;68.60;13.40;101068.00;;;;5017353;28;20200;-76
2024/03/14 06:33:23;;;;;;;7.47;5.57;;;11.70;68.60;13.40;101065.00;;;;5008182;28;20204;-76
2024/03/14 06:35:50;;;;;;;6.82;5.30;;;11.70;68.70;13.40;101065.00;;;;5003450;28;20251;-77
2024/03/14 06:38:18;;;;;;;7.03;5.53;;;11.70;68.70;13.40;101060.00;;;;5017429;28;20192;-77
2024/03/14 06:40:46;;;;;;;7.05;5.03;;;11.70;68.80;13.40;101070.00;;;;5012282;28;20232;-76
2024/03/14 06:43:13;;;;;;;5.95;5.10;;;11.70;68.90;13.50;101069.00;;;;5019066;28;20263;-76
2024/03/14 06:45:40;;;;;;;7.75;5.18;;;11.80;69.00;13.50;101060.00;;;;5000281;28;20387;-76
2024/03/14 06:48:09;;;;;;;7.50;5.55;;;11.80;69.00;13.50;101062.00;;;;5004552;28;20682;-76
2024/03/14 06:50:36;;;;;;;5.90;5.25;;;11.80;69.80;13.50;101065.00;;;;5008540;28;20200;-78
2024/03/14 06:53:03;;;;;;;13.45;6.03;;;11.80;69.20;13.60;101071.00;;;;5035581;28;20192;-71
2024/03/14 06:55:31;;;;;;;7.28;5.65;;;11.90;69.40;13.60;101067.00;;;;4999486;28;20580;-71
2024/03/14 06:57:59;;;;;;;7.43;5.35;;;11.90;69.60;13.70;101070.00;;;;4999912;28;20220;-71
2024/03/14 07:00:27;;;;;;;7.93;5.65;;;11.90;69.70;13.70;101066.00;;;;5025696;28;20215;-72
2024/03/14 07:02:54;;;;;;;7.22;5.22;;;12.00;69.70;13.70;101071.00;;;;5019893;28;20242;-71
2024/03/14 07:05:22;;;;;;;6.47;5.38;;;12.00;70.40;13.80;101067.00;;;;4994717;28;20212;-71
2024/03/14 07:07:50;;;;;;;6.40;5.28;;;12.10;69.80;13.90;101065.00;;;;5000634;28;20201;-71
2024/03/14 07:10:19;;;;;;;5.75;5.05;;;12.10;69.90;13.90;101056.00;;;;4999479;28;20204;-71
2024/03/14 07:12:46;;;;;;;5.55;4.97;;;12.10;69.90;13.90;101050.00;;;;4983932;28;20308;-71
2024/03/14 07:15:14;;;;;;;6.63;5.07;;;12.20;70.00;14.00;101052.00;;;;4984108;28;20701;-72
2024/03/14 07:17:41;;;;;;;7.45;5.03;;;12.30;70.10;14.10;101051.00;;;;4984101;28;20287;-72
2024/03/14 07:20:16;;;;;;;6.13;5.18;;;12.30;70.10;14.10;101052.00;;;;4983447;28;20711;-72
2024/03/14 07:22:43;;;;;;;6.35;5.40;;;12.40;70.20;14.20;101050.00;;;;4997593;28;20239;-72
2024/03/14 07:25:13;;;;;;;7.28;5.50;;;12.40;70.80;14.20;101049.00;;;;5001655;28;20196;-72
2024/03/14 07:27:40;;;;;;;5.93;4.68;;;12.50;70.30;14.30;101055.00;;;;4984766;28;20196;-72
2024/03/14 07:30:13;;;;;;;5.57;5.03;;;12.60;70.30;14.30;101056.00;;;;5005595;28;20205;-71
2024/03/14 07:32:41;;;;;;;7.10;4.75;;;12.60;70.30;14.40;101051.00;;;;4988938;28;20196;-72
2024/03/14 07:35:09;;;;;;;6.32;5.22;;;12.70;70.40;14.50;101048.00;;;;4983917;28;20193;-72
2024/03/14 07:37:36;;;;;;;6.07;5.22;;;12.80;70.40;14.60;101052.00;;;;4983735;28;20193;-72
2024/03/14 07:40:05;;;;;;;4.93;4.43;;;12.80;70.40;14.60;101043.00;;;;4985714;28;20224;-72
2024/03/14 07:42:32;;;;;;;6.50;5.53;;;12.90;70.40;14.70;101050.00;;;;5003644;28;20218;-72
2024/03/14 07:44:59;;;;;;;6.40;4.43;;;13.00;70.50;14.70;101047.00;;;;5002948;28;20214;-72
2024/03/14 07:47:26;;;;;;;6.22;5.00;;;13.00;71.10;14.80;101053.00;;;;4982847;28;20214;-72
2024/03/14 07:49:54;;;;;;;5.85;5.25;;;13.00;70.30;14.90;101060.00;;;;5012909;28;20687;-72
2024/03/14 07:52:21;;;;;;;5.45;4.72;;;13.10;70.40;15.00;101056.00;;;;4998587;28;20597;-72
2024/03/14 07:54:49;;;;;;;5.28;4.70;;;13.20;70.40;15.00;101055.00;;;;4986029;28;20289;-72
2024/03/14 07:57:16;;;;;;;5.43;4.30;;;13.30;70.40;15.00;101054.00;;;;5003245;28;20208;-72
2024/03/14 07:59:43;;;;;;;5.70;5.00;;;13.40;70.40;15.10;101059.00;;;;4982908;28;20224;-72
2024/03/14 08:02:11;;;;;;;6.03;5.05;;;13.40;70.30;15.20;101061.00;;;;4985715;28;20282;-72
2024/03/14 08:04:39;;;;;;;6.20;4.80;;;13.50;70.40;15.30;101060.00;;;;5025963;28;20230;-72
2024/03/14 08:07:13;;;;;;;7.88;5.10;;;13.60;70.40;15.30;101062.00;;;;5019059;28;20198;-72
2024/03/14 08:09:41;;;;;;;4.82;4.32;;;13.60;70.20;15.40;101060.00;;;;5020630;28;20205;-72
2024/03/14 08:12:09;;;;;;;4.80;4.30;;;13.70;70.20;15.50;101059.00;;;;5018938;28;20661;-72
2024/03/14 08:14:36;;;;;;;5.45;4.72;;;13.80;70.30;15.50;101061.00;;;;5001719;28;20685;-72
2024/03/14 08:17:07;;;;;;;4.72;3.97;;;13.80;70.20;15.60;101066.00;;;;4998628;28;20234;-72
2024/03/14 08:19:34;;;;;;;4.55;4.10;;;13.90;70.20;15.70;101068.00;;;;5014640;28;20200;-73
2024/03/14 08:22:06;;;;;;;5.20;4.10;;;14.00;70.20;15.80;101064.00;;;;5018454;28;20207;-72
2024/03/14 08:24:42;;;;;;;6.28;4.28;;;14.10;70.20;15.90;101067.00;;;;5005615;28;20207;-72
2024/03/14 08:27:12;;;;;;;4.88;3.95;;;14.20;70.20;15.90;101063.00;;;;5014462;28;20199;-72
2024/03/14 08:29:39;;;;;;;4.47;3.83;;;14.20;70.10;16.00;101066.00;;;;5015988;28;20200;-72
2024/03/14 08:32:07;;;;;;;5.05;3.75;;;14.30;70.10;16.10;101068.00;;;;4998842;28;20242;-72
2024/03/14 08:34:34;;;;;;;6.50;3.60;;;14.40;70.10;16.20;101070.00;;;;4998553;28;20605;-72
2024/03/14 08:37:01;;;;;;;4.50;3.90;;;14.50;70.00;16.20;101058.00;;;;4998897;28;20192;-72
2024/03/14 08:39:29;;;;;;;3.83;3.20;;;14.50;70.00;16.30;101066.00;;;;4998710;28;20199;-72
2024/03/14 08:41:58;;;;;;;3.83;3.40;;;14.60;69.90;16.40;101059.00;;;;5010367;28;20220;-73
2024/03/14 08:44:26;;;;;;;5.30;3.40;;;14.70;69.80;16.40;101050.00;;;;5011101;28;20235;-72
2024/03/14 08:46:53;;;;;;;3.90;3.53;;;14.80;69.80;16.50;101054.00;;;;5013619;28;20278;-72
2024/03/14 08:49:21;;;;;;;3.67;3.33;;;14.90;69.70;16.50;101053.00;;;;5000427;28;20231;-72
2024/03/14 08:51:48;;;;;;;3.53;3.17;;;14.90;69.50;16.60;101054.00;;;;5003983;28;20569;-73
2024/03/14 08:56:58;;;;;;;4.60;3.50;;;15.00;69.40;16.70;101057.00;;;;5038945;28;20208;-73
2024/03/14 08:59:28;;;;;;;4.70;3.70;;;15.10;69.30;16.80;101061.00;;;;5019395;28;20200;-72
2024/03/14 09:01:56;;;;;;;4.03;3.20;;;15.10;69.20;16.80;101059.00;;;;4998061;28;20701;-73
2024/03/14 09:04:23;;;;;;;3.40;3.08;;;15.20;69.10;16.80;101065.00;;;;4998617;28;20600;-73
2024/03/14 09:06:51;;;;;;;3.13;2.83;;;15.20;68.90;16.90;101064.00;;;;5007490;28;20204;-73
2024/03/14 09:09:27;;;;;;;3.80;3.47;;;15.30;68.90;16.90;101055.00;;;;5011588;28;20199;-72
2024/03/14 09:12:00;;;;;;;3.70;3.28;;;15.30;68.90;17.00;101056.00;;;;5020164;28;20541;-72
2024/03/14 09:14:32;;;;;;;3.55;3.08;;;15.40;68.90;17.10;101056.00;;;;5020744;28;20584;-73
2024/03/14 09:17:04;;;;;;;3.70;3.05;;;15.40;69.00;17.10;101051.00;;;;5017705;28;20192;-73
2024/03/14 09:19:32;;;;;;;5.55;3.00;;;15.50;69.10;17.20;101052.00;;;;5012618;28;20195;-73
2024/03/14 09:21:59;;;;;;;3.95;3.33;;;15.60;69.80;17.30;101053.00;;;;5004011;28;20238;-73
2024/03/14 09:24:26;;;;;;;3.90;3.20;;;15.60;69.10;17.30;101052.00;;;;4998040;28;20642;-73
2024/03/14 09:26:54;;;;;;;4.72;3.75;;;15.70;69.10;17.40;101049.00;;;;4998005;28;20196;-73
2024/03/14 09:29:22;;;;;;;4.53;3.38;;;15.80;69.10;17.50;101048.00;;;;5007321;28;20298;-73
2024/03/14 09:31:49;;;;;;;3.38;3.08;;;15.90;69.00;17.60;101051.00;;;;4997746;28;20200;-73
2024/03/14 09:34:17;;;;;;;3.38;3.08;;;15.90;68.90;17.70;101046.00;;;;5014012;28;20287;-73
2024/03/14 09:36:50;;;;;;;3.20;2.90;;;16.10;69.00;17.80;101042.00;;;;5013683;28;20669;-73
2024/03/14 09:39:19;;;;;;;4.28;2.65;;;16.20;69.00;17.90;101047.00;;;;5029498;28;20204;-73
2024/03/14 09:41:47;;;;;;;4.80;2.95;;;16.30;69.00;18.00;101043.00;;;;5002054;28;20228;-74
2024/03/14 09:44:15;;;;;;;3.88;3.10;;;16.40;68.70;18.10;101052.00;;;;4998172;28;20212;-73
2024/03/14 09:46:44;;;;;;;3.65;3.13;;;16.50;69.30;18.20;101045.00;;;;4997906;28;20200;-73
2024/03/14 09:49:12;;;;;;;4.75;2.75;;;16.60;68.60;18.20;101036.00;;;;4997664;28;20650;-73
2024/03/14 09:51:40;;;;;;;2.67;2.45;;;16.70;68.40;18.40;101041.00;;;;5011805;28;20618;-74
2024/03/14 09:54:08;;;;;;;3.15;2.55;;;16.70;69.00;18.40;101035.00;;;;5002772;28;20188;-73
2024/03/14 09:56:35;;;;;;;2.50;2.30;;;16.90;68.90;18.50;101044.00;;;;4998084;28;20205;-73
2024/03/14 09:59:05;;;;;;;3.30;2.85;;;17.00;68.10;18.60;101040.00;;;;4997640;28;20288;-74
2024/03/14 10:01:32;;;;;;;3.53;2.50;;;17.10;67.80;18.70;101039.00;;;;5001056;28;20232;-74
2024/03/14 10:03:59;;;;;;;3.28;2.20;;;17.10;67.50;18.80;101036.00;;;;4998065;28;20220;-73
2024/03/14 10:06:27;;;;;;;4.03;2.80;;;17.20;67.60;18.90;101033.00;;;;4998063;28;20299;-74
2024/03/14 10:08:57;;;;;;;2.92;2.63;;;17.30;68.30;18.90;101032.00;;;;4997651;28;20236;-73
2024/03/14 10:11:24;;;;;;;3.60;2.03;;;17.40;67.50;19.00;101028.00;;;;5002215;28;20246;-73
2024/03/14 10:13:51;;;;;;;3.40;2.22;;;17.50;67.20;19.10;101033.00;;;;5003698;28;20263;-72
2024/03/14 10:16:21;;;;;;;2.53;1.80;;;17.60;66.90;19.20;101044.00;;;;4988578;28;20210;-74
2024/03/14 10:18:49;;;;;;;3.00;2.28;;;17.70;66.80;19.20;101032.00;;;;4991772;28;20210;-74
2024/03/14 10:21:17;;;;;;;1.65;1.55;;;17.70;66.60;19.30;101036.00;;;;5014671;28;20224;-73
2024/03/14 10:23:44;;;;;;;1.50;1.40;;;17.80;66.50;19.40;101036.00;;;;5017314;28;20262;-72
2024/03/14 10:26:13;;;;;;;3.15;2.00;;;17.80;66.20;19.50;101032.00;;;;5017169;28;20197;-73
2024/03/14 10:28:41;;;;;;;2.25;2.05;;;17.90;66.30;19.60;101033.00;;;;5019947;28;20200;-73
2024/03/14 10:31:08;;;;;;;2.67;2.20;;;18.00;66.30;19.60;101021.00;;;;4989569;28;20211;-74
2024/03/14 10:33:37;;;;;;;2.88;2.20;;;18.10;66.10;19.70;101021.00;;;;5003494;28;20283;-73
2024/03/14 10:36:04;;;;;;;2.80;2.00;;;18.20;66.10;19.80;101011.00;;;;5015421;28;20257;-73
2024/03/14 10:38:35;;;;;;;2.85;2.33;;;18.30;66.00;19.90;101017.00;;;;5003767;28;20672;-73
2024/03/14 10:41:05;;;;;;;3.03;2.28;;;18.40;65.90;19.90;101012.00;;;;4986378;28;20224;-73
2024/03/14 10:43:36;;;;;;;2.35;1.98;;;18.50;65.80;20.00;101020.00;;;;5001165;28;20206;-73
2024/03/14 10:46:04;;;;;;;2.13;1.58;;;18.50;65.60;20.10;101010.00;;;;5008033;28;20204;-73
2024/03/14 10:48:32;;;;;;;2.60;2.25;;;18.60;65.50;20.20;101002.00;;;;4984481;28;20200;-73
2024/03/14 10:50:59;;;;;;;2.58;1.95;;;18.70;65.30;20.20;101010.00;;;;4984471;28;20207;-73
2024/03/14 10:53:26;;;;;;;3.72;2.22;;;18.80;65.20;20.30;101010.00;;;;4989347;28;20215;-74
2024/03/14 10:55:54;;;;;;;3.03;1.90;;;18.90;65.00;20.40;100999.00;;;;5000792;28;20287;-73